Time;durP1;ratioP1;P1;durP2;ratioP2;P2;SDS_P1;SDS_P2;PMS_P1;PMS_P2;Temp;Humidity;BMP_temperature;BMP_pressure;BME280_temperature;BME280_humidity;BME280_pressure;Samples;Min_cycle;Max_cycle;Signal;HPM_P1;HPM_P2
2022/09/14 00:02:09;;;;;;;;;;;;;;;12.86;100.00;100865.63;5105847;28;20360;-80
2022/09/14 00:04:37;;;;;;;;;;;;;;;12.44;100.00;100870.63;5110883;28;19928;-79
2022/09/14 00:07:04;;;;;;;;;;;;;;;12.37;100.00;100873.34;5104088;28;19938;-80
2022/09/14 00:09:31;;;;;;;;;;;;;;;12.47;100.00;100866.72;5106246;28;19996;-77
2022/09/14 00:11:57;;;;;;;;;;;;;;;12.55;100.00;100861.91;5104794;28;19924;-81
2022/09/14 00:14:25;;;;;;;;;;;;;;;12.70;100.00;100861.63;5107313;28;19924;-79
2022/09/14 00:16:52;;;;;;;;;;;;;;;12.06;100.00;100867.94;5111568;28;19981;-79
2022/09/14 00:19:19;;;;;;;;;;;;;;;12.15;100.00;100858.69;5109532;28;19928;-80
2022/09/14 00:21:49;;;;;;;;;;;;;;;12.16;100.00;100854.97;5102911;28;19924;-79
2022/09/14 00:24:16;;;;;;;;;;;;;;;12.53;100.00;100853.34;5106667;28;19924;-82
2022/09/14 00:26:43;;;;;;;;;;;;;;;12.24;100.00;100856.59;5112123;28;19924;-78
2022/09/14 00:29:11;;;;;;;;;;;;;;;12.15;100.00;100856.84;5107593;28;19928;-81
2022/09/14 00:31:39;;;;;;;;;;;;;;;12.30;100.00;100867.22;5106743;28;19927;-80
2022/09/14 00:34:07;;;;;;;;;;;;;;;12.39;100.00;100873.09;5102424;28;19943;-83
2022/09/14 00:36:37;;;;;;;;;;;;;;;12.42;100.00;100878.00;5106025;28;19928;-79
2022/09/14 00:39:03;;;;;;;;;;;;;;;12.20;100.00;100879.38;5105015;28;19923;-81
2022/09/14 00:41:31;;;;;;;;;;;;;;;12.43;100.00;100881.47;5104400;28;20375;-79
2022/09/14 00:44:00;;;;;;;;;;;;;;;11.90;100.00;100874.56;5105771;28;20346;-82
2022/09/14 00:46:29;;;;;;;;;;;;;;;12.25;100.00;100880.34;5106092;27;20330;-81
2022/09/14 00:48:58;;;;;;;;;;;;;;;12.41;100.00;100871.06;5102188;28;19985;-81
2022/09/14 00:51:26;;;;;;;;;;;;;;;12.42;100.00;100871.88;5111919;28;19928;-78
2022/09/14 00:53:52;;;;;;;;;;;;;;;11.97;100.00;100880.69;5105935;28;19988;-79
2022/09/14 00:56:19;;;;;;;;;;;;;;;12.08;100.00;100888.00;5104941;28;19939;-78
2022/09/14 00:58:49;;;;;;;;;;;;;;;12.23;100.00;100885.06;5101782;28;19932;-83
2022/09/14 01:01:16;;;;;;;;;;;;;;;12.14;100.00;100883.69;5107769;28;20019;-79
2022/09/14 01:03:43;;;;;;;;;;;;;;;12.13;100.00;100885.53;5097731;28;20360;-80
2022/09/14 01:06:16;;;;;;;;;;;;;;;11.69;100.00;100879.09;5105976;28;20364;-82
2022/09/14 01:08:53;;;;;;;;;;;;;;;11.38;100.00;100884.31;5101534;28;19984;-78
2022/09/14 01:11:30;;;;;;;;;;;;;;;11.94;100.00;100888.28;5108247;28;20412;-79
2022/09/14 01:14:01;;;;;;;;;;;;;;;11.14;100.00;100893.72;5105708;28;19924;-78
2022/09/14 01:16:31;;;;;;;;;;;;;;;11.66;100.00;100892.81;5104687;28;20330;-78
2022/09/14 01:18:59;;;;;;;;;;;;;;;11.85;100.00;100891.16;5110801;28;19924;-82
2022/09/14 01:21:29;;;;;;;;;;;;;;;11.63;100.00;100887.91;5103848;28;19924;-79
2022/09/14 01:24:00;;;;;;;;;;;;;;;11.77;100.00;100890.53;5105967;28;19982;-78
2022/09/14 01:26:45;;;;;;;;;;;;;;;11.75;100.00;100895.25;5111387;28;19924;-77
2022/09/14 01:29:15;;;;;;;;;;;;;;;11.96;100.00;100886.22;5103486;28;19931;-80
2022/09/14 01:31:47;;;;;;;;;;;;;;;12.04;100.00;100889.47;5104024;28;19924;-81
2022/09/14 01:34:16;;;;;;;;;;;;;;;11.84;100.00;100886.84;5096473;28;19985;-78
2022/09/14 01:36:47;;;;;;;;;;;;;;;11.74;100.00;100883.81;5105725;28;19931;-81
2022/09/14 01:39:15;;;;;;;;;;;;;;;11.86;100.00;100879.50;5102058;28;19935;-84
2022/09/14 01:41:42;;;;;;;;;;;;;;;11.62;100.00;100878.31;5101478;28;19984;-79
2022/09/14 01:44:12;;;;;;;;;;;;;;;11.62;100.00;100866.84;5104992;28;20395;-78
2022/09/14 01:46:42;;;;;;;;;;;;;;;11.47;100.00;100875.06;5095455;28;19924;-79
2022/09/14 01:49:17;;;;;;;;;;;;;;;11.35;100.00;100866.91;5108810;28;20008;-81
2022/09/14 01:51:46;;;;;;;;;;;;;;;11.07;100.00;100858.34;5083259;28;19924;-79
2022/09/14 01:54:16;;;;;;;;;;;;;;;10.90;100.00;100861.41;5096324;28;20330;-82
2022/09/14 01:56:48;;;;;;;;;;;;;;;10.98;100.00;100863.03;5087744;28;19993;-82
2022/09/14 01:59:16;;;;;;;;;;;;;;;11.24;100.00;100868.34;5093162;28;20011;-78
2022/09/14 02:01:49;;;;;;;;;;;;;;;11.45;100.00;100863.81;5172130;22;19932;-76
2022/09/14 02:04:22;;;;;;;;;;;;;;;11.51;100.00;100863.00;5029802;28;20400;-77
2022/09/14 02:06:49;;;;;;;;;;;;;;;11.63;100.00;100860.50;5030110;28;19933;-81
2022/09/14 02:09:21;;;;;;;;;;;;;;;11.73;100.00;100860.06;5031741;28;19928;-80
2022/09/14 02:11:48;;;;;;;;;;;;;;;11.73;100.00;100860.88;5027677;28;19925;-80
2022/09/14 02:14:15;;;;;;;;;;;;;;;11.72;100.00;100853.94;5027890;28;20374;-77
2022/09/14 02:16:44;;;;;;;;;;;;;;;11.62;100.00;100850.91;5032527;28;19979;-77
2022/09/14 02:19:26;;;;;;;;;;;;;;;;;;;;;
2022/09/14 02:21:53;;;;;;;;;;;;;;;11.52;100.00;100847.84;5029811;28;19939;-77
2022/09/14 02:24:25;;;;;;;;;;;;;;;11.69;100.00;100849.84;5029134;28;19975;-81
2022/09/14 02:26:54;;;;;;;;;;;;;;;11.40;100.00;100845.00;5026615;28;19933;-81
2022/09/14 02:29:21;;;;;;;;;;;;;;;11.23;100.00;100844.63;5024597;28;19925;-80
2022/09/14 02:31:57;;;;;;;;;;;;;;;11.53;100.00;100842.31;5021602;28;20016;-77
2022/09/14 02:34:43;;;;;;;;;;;;;;;11.56;100.00;100854.38;5020673;28;20289;-77
2022/09/14 02:37:13;;;;;;;;;;;;;;;11.39;100.00;100849.50;5028790;28;19930;-77
2022/09/14 02:39:47;;;;;;;;;;;;;;;11.48;100.00;100849.28;5028854;28;19925;-81
2022/09/14 02:42:37;;;;;;;;;;;;;;;;;;;;;
2022/09/14 02:45:09;;;;;;;;;;;;;;;11.46;100.00;100839.66;5025392;28;19925;-81
2022/09/14 02:47:41;;;;;;;;;;;;;;;11.43;100.00;100844.59;5021153;28;19929;-81
2022/09/14 02:50:26;;;;;;;;;;;;;;;11.43;100.00;100842.75;5026821;28;19936;-77
2022/09/14 02:53:01;;;;;;;;;;;;;;;11.33;100.00;100847.69;5018847;28;20324;-78
2022/09/14 02:55:38;;;;;;;;;;;;;;;11.38;100.00;100849.72;5029396;28;20004;-79
2022/09/14 02:58:06;;;;;;;;;;;;;;;11.55;100.00;100847.41;5029848;28;19935;-78
2022/09/14 03:00:35;;;;;;;;;;;;;;;11.52;100.00;100855.81;5022453;28;19925;-81
2022/09/14 03:03:02;;;;;;;;;;;;;;;11.24;100.00;100857.72;5031254;28;19935;-80
2022/09/14 03:05:28;;;;;;;;;;;;;;;11.39;100.00;100846.84;5027047;28;19936;-77
2022/09/14 03:07:55;;;;;;;;;;;;;;;11.39;100.00;100849.50;5014179;28;20333;-81
2022/09/14 03:10:23;;;;;;;;;;;;;;;11.48;100.00;100850.09;5024938;28;19930;-77
2022/09/14 03:12:49;;;;;;;;;;;;;;;11.41;100.00;100847.47;5018689;28;20012;-79
2022/09/14 03:15:16;;;;;;;;;;;;;;;11.20;100.00;100864.47;5029428;28;19925;-80
2022/09/14 03:17:45;;;;;;;;;;;;;;;11.21;100.00;100867.94;5027534;28;19925;-77
2022/09/14 03:20:12;;;;;;;;;;;;;;;10.93;100.00;100878.81;5022884;28;19933;-78
2022/09/14 03:22:38;;;;;;;;;;;;;;;10.84;100.00;100872.88;5018295;28;19928;-78
2022/09/14 03:25:05;;;;;;;;;;;;;;;11.19;100.00;100872.63;5025241;28;20354;-77
2022/09/14 03:27:33;;;;;;;;;;;;;;;11.12;100.00;100877.16;5022877;28;19929;-80
2022/09/14 03:29:59;;;;;;;;;;;;;;;11.03;100.00;100873.88;5028508;28;20439;-78
2022/09/14 03:32:26;;;;;;;;;;;;;;;11.06;100.00;100876.13;5024629;28;19925;-78
2022/09/14 03:34:53;;;;;;;;;;;;;;;10.89;100.00;100878.41;5024915;28;19929;-77
2022/09/14 03:37:19;;;;;;;;;;;;;;;11.17;100.00;100872.06;5025138;28;20023;-78
2022/09/14 03:39:46;;;;;;;;;;;;;;;11.16;100.00;100876.53;5031591;28;19999;-80
2022/09/14 03:42:12;;;;;;;;;;;;;;;10.95;100.00;100890.03;5026624;28;19925;-77
2022/09/14 03:44:40;;;;;;;;;;;;;;;11.09;100.00;100889.00;5023072;28;19933;-77
2022/09/14 03:47:07;;;;;;;;;;;;;;;11.22;100.00;100888.19;5018195;28;20377;-77
2022/09/14 03:49:33;;;;;;;;;;;;;;;11.20;100.00;100893.72;5025238;28;19964;-76
2022/09/14 03:52:00;;;;;;;;;;;;;;;11.11;100.00;100896.81;5023453;28;20349;-78
2022/09/14 03:54:26;;;;;;;;;;;;;;;10.84;100.00;100899.44;5021743;28;19926;-78
2022/09/14 03:56:53;;;;;;;;;;;;;;;11.05;100.00;100898.44;5022703;28;19936;-80
2022/09/14 03:59:20;;;;;;;;;;;;;;;11.18;100.00;100898.41;5024401;28;19988;-79
2022/09/14 04:01:48;;;;;;;;;;;;;;;10.97;100.00;100906.59;5028560;28;20321;-79
2022/09/14 04:04:16;;;;;;;;;;;;;;;11.19;100.00;100901.88;5026611;28;20032;-76
2022/09/14 04:06:43;;;;;;;;;;;;;;;11.16;100.00;100905.78;5018947;28;19933;-79
2022/09/14 04:09:10;;;;;;;;;;;;;;;10.80;100.00;100906.16;5023766;28;19929;-77
2022/09/14 04:14:24;;;;;;;;;;;;;;;11.38;100.00;100894.94;5021971;28;19926;-78
2022/09/14 04:16:52;;;;;;;;;;;;;;;11.38;100.00;100898.41;5022094;28;19925;-78
2022/09/14 04:19:21;;;;;;;;;;;;;;;11.48;100.00;100897.97;5028152;28;20346;-83
2022/09/14 04:21:48;;;;;;;;;;;;;;;11.60;100.00;100900.81;5020914;28;19925;-80
2022/09/14 04:24:15;;;;;;;;;;;;;;;11.75;100.00;100905.91;5024206;28;20298;-79
2022/09/14 04:26:43;;;;;;;;;;;;;;;11.81;100.00;100903.22;5020517;28;19933;-81
2022/09/14 04:29:10;;;;;;;;;;;;;;;12.06;100.00;100902.56;5022485;28;19986;-79
2022/09/14 04:31:36;;;;;;;;;;;;;;;12.27;100.00;100912.91;5024680;28;19929;-80
2022/09/14 04:34:04;;;;;;;;;;;;;;;12.46;100.00;100913.81;5030475;28;19925;-80
2022/09/14 04:36:31;;;;;;;;;;;;;;;12.35;100.00;100918.00;5019164;28;20373;-78
2022/09/14 04:38:59;;;;;;;;;;;;;;;12.52;100.00;100922.81;5027876;28;19929;-80
2022/09/14 04:41:26;;;;;;;;;;;;;;;12.56;100.00;100919.53;5027628;28;19975;-80
2022/09/14 04:43:53;;;;;;;;;;;;;;;12.87;100.00;100911.75;5023756;28;19973;-79
2022/09/14 04:46:21;;;;;;;;;;;;;;;12.78;100.00;100912.00;5027177;28;19995;-76
2022/09/14 04:48:48;;;;;;;;;;;;;;;12.73;100.00;100917.16;5026638;28;20011;-79
2022/09/14 04:51:17;;;;;;;;;;;;;;;13.03;100.00;100920.00;5025984;28;20072;-77
2022/09/14 04:53:45;;;;;;;;;;;;;;;13.29;100.00;100918.22;5025933;28;19926;-80
2022/09/14 04:56:12;;;;;;;;;;;;;;;13.23;100.00;100921.72;5035789;28;20320;-79
2022/09/14 04:58:41;;;;;;;;;;;;;;;13.37;100.00;100922.44;5036214;28;19925;-78
2022/09/14 05:01:09;;;;;;;;;;;;;;;13.62;100.00;100909.06;5033124;28;20401;-79
2022/09/14 05:03:37;;;;;;;;;;;;;;;13.67;100.00;100912.69;5026132;28;20407;-82
2022/09/14 05:06:05;;;;;;;;;;;;;;;13.73;100.00;100911.00;5018090;28;19930;-77
2022/09/14 05:08:35;;;;;;;;;;;;;;;13.88;100.00;100906.09;5027333;28;19925;-80
2022/09/14 05:11:02;;;;;;;;;;;;;;;14.10;100.00;100914.50;5025319;28;20329;-76
2022/09/14 05:13:29;;;;;;;;;;;;;;;14.27;100.00;100913.84;5021714;28;19928;-79
2022/09/14 05:15:55;;;;;;;;;;;;;;;14.27;100.00;100919.22;5022437;28;19925;-79
2022/09/14 05:18:22;;;;;;;;;;;;;;;14.38;100.00;100924.59;5026453;28;20440;-81
2022/09/14 05:20:48;;;;;;;;;;;;;;;14.63;100.00;100921.81;5019616;28;19933;-79
2022/09/14 05:23:15;;;;;;;;;;;;;;;14.52;100.00;100921.78;5026455;28;19925;-79
2022/09/14 05:25:44;;;;;;;;;;;;;;;14.58;100.00;100918.19;5027047;28;19925;-80
2022/09/14 05:28:12;;;;;;;;;;;;;;;14.88;100.00;100921.66;5026635;28;19929;-77
2022/09/14 05:30:39;;;;;;;;;;;;;;;14.94;100.00;100914.56;5016045;28;19929;-80
2022/09/14 05:33:06;;;;;;;;;;;;;;;15.05;100.00;100911.09;5018576;28;19932;-80
2022/09/14 05:35:32;;;;;;;;;;;;;;;15.30;100.00;100918.91;5026983;28;19999;-79
2022/09/14 05:37:59;;;;;;;;;;;;;;;15.46;100.00;100909.41;5025971;28;19929;-79
2022/09/14 05:40:25;;;;;;;;;;;;;;;15.57;100.00;100913.09;5020824;28;19933;-78
2022/09/14 05:42:53;;;;;;;;;;;;;;;15.56;100.00;100903.44;5024494;28;19986;-78
2022/09/14 05:45:20;;;;;;;;;;;;;;;15.70;100.00;100912.91;5029180;28;20361;-76
2022/09/14 05:47:47;;;;;;;;;;;;;;;15.43;100.00;100920.56;5021979;28;19926;-77
2022/09/14 05:50:14;;;;;;;;;;;;;;;15.80;100.00;100920.34;5024788;28;19929;-82
2022/09/14 05:52:41;;;;;;;;;;;;;;;16.08;100.00;100910.72;5025772;28;19951;-80
2022/09/14 05:55:08;;;;;;;;;;;;;;;16.34;100.00;100920.03;5026382;28;20007;-78
2022/09/14 05:57:34;;;;;;;;;;;;;;;16.56;100.00;100925.56;5026662;28;19991;-78
2022/09/14 06:00:03;;;;;;;;;;;;;;;16.96;100.00;100925.50;5019930;28;19933;-78
2022/09/14 06:02:30;;;;;;;;;;;;;;;17.07;100.00;100923.78;5029278;28;20243;-79
2022/09/14 06:04:56;;;;;;;;;;;;;;;17.34;100.00;100923.94;5015007;28;19925;-78
2022/09/14 06:07:23;;;;;;;;;;;;;;;17.47;100.00;100930.84;5015009;28;19937;-79
2022/09/14 06:09:49;;;;;;;;;;;;;;;17.83;100.00;100916.88;5026545;28;19926;-82
2022/09/14 06:12:16;;;;;;;;;;;;;;;17.99;100.00;100927.81;5017467;28;19991;-80
2022/09/14 06:14:42;;;;;;;;;;;;;;;18.24;100.00;100932.66;5024968;28;19925;-79
2022/09/14 06:17:10;;;;;;;;;;;;;;;18.54;100.00;100929.50;5019333;28;19932;-80
2022/09/14 06:19:37;;;;;;;;;;;;;;;18.84;100.00;100931.69;5028062;28;19987;-81
2022/09/14 06:22:04;;;;;;;;;;;;;;;19.24;100.00;100933.09;5023882;28;19994;-79
2022/09/14 06:24:30;;;;;;;;;;;;;;;19.06;100.00;100934.28;5028641;28;19928;-78
2022/09/14 06:26:57;;;;;;;;;;;;;;;19.30;100.00;100932.06;5024414;28;19925;-77
2022/09/14 06:29:23;;;;;;;;;;;;;;;19.02;100.00;100927.00;5018254;28;19933;-80
2022/09/14 06:31:50;;;;;;;;;;;;;;;19.65;100.00;100926.13;5015277;28;19937;-83
2022/09/14 06:34:18;;;;;;;;;;;;;;;20.10;100.00;100934.69;5026966;28;19992;-81
2022/09/14 06:36:45;;;;;;;;;;;;;;;19.76;100.00;100940.47;5021150;28;20366;-78
2022/09/14 06:39:12;;;;;;;;;;;;;;;19.86;100.00;100934.31;5026229;28;20030;-82
2022/09/14 06:41:38;;;;;;;;;;;;;;;19.74;100.00;100939.91;5021079;28;20361;-77
2022/09/14 06:44:05;;;;;;;;;;;;;;;20.13;100.00;100936.84;5023518;28;19929;-81
2022/09/14 06:46:33;;;;;;;;;;;;;;;20.27;100.00;100937.16;5025893;28;19925;-80
2022/09/14 06:49:01;;;;;;;;;;;;;;;19.88;100.00;100945.66;5022341;28;20365;-79
2022/09/14 06:51:30;;;;;;;;;;;;;;;20.19;100.00;100943.88;5018081;28;19929;-81
2022/09/14 06:53:58;;;;;;;;;;;;;;;20.22;100.00;100943.34;5028563;28;20393;-80
2022/09/14 06:56:24;;;;;;;;;;;;;;;20.41;100.00;100940.19;5028076;28;19947;-77
2022/09/14 06:58:52;;;;;;;;;;;;;;;20.23;100.00;100944.97;5029473;28;19925;-78
2022/09/14 07:01:19;;;;;;;;;;;;;;;20.70;100.00;100932.44;5027309;28;20255;-79
2022/09/14 07:03:46;;;;;;;;;;;;;;;20.92;100.00;100935.69;5020715;28;19925;-79
2022/09/14 07:06:14;;;;;;;;;;;;;;;21.04;98.81;100928.13;5022915;28;20016;-80
2022/09/14 07:08:43;;;;;;;;;;;;;;;21.11;100.00;100941.34;5023474;28;19983;-83
2022/09/14 07:11:10;;;;;;;;;;;;;;;20.94;94.93;100935.44;5025665;28;19933;-81
2022/09/14 07:13:37;;;;;;;;;;;;;;;21.31;100.00;100937.03;5031516;28;19925;-76
2022/09/14 07:16:04;;;;;;;;;;;;;;;20.87;96.82;100932.19;5027826;28;19925;-79
2022/09/14 07:18:31;;;;;;;;;;;;;;;21.33;92.34;100938.38;5022297;28;20348;-77
2022/09/14 07:21:01;;;;;;;;;;;;;;;21.28;90.12;100927.56;5021400;28;19932;-79
2022/09/14 07:23:27;;;;;;;;;;;;;;;20.86;92.66;100928.66;5017319;28;19991;-75
2022/09/14 07:26:00;;;;;;;;;;;;;;;21.71;92.37;100928.06;5028113;28;19933;-80
2022/09/14 07:28:27;;;;;;;;;;;;;;;21.54;91.78;100928.34;5022906;28;20003;-77
2022/09/14 07:30:54;;;;;;;;;;;;;;;21.57;87.09;100930.50;5026167;28;19925;-80
2022/09/14 07:33:20;;;;;;;;;;;;;;;21.73;92.66;100932.09;5016624;28;19984;-78
2022/09/14 07:35:47;;;;;;;;;;;;;;;21.85;87.85;100926.38;5026406;28;19984;-77
2022/09/14 07:38:13;;;;;;;;;;;;;;;22.43;84.74;100923.16;5022158;28;19928;-78
2022/09/14 07:40:40;;;;;;;;;;;;;;;21.85;86.64;100933.69;5026780;28;19937;-78
2022/09/14 07:43:08;;;;;;;;;;;;;;;21.96;74.38;100929.84;5025047;28;19932;-81
2022/09/14 07:45:34;;;;;;;;;;;;;;;21.81;89.95;100930.72;5025366;28;19987;-79
2022/09/14 07:48:01;;;;;;;;;;;;;;;23.00;77.88;100920.88;5025726;28;19925;-77
2022/09/14 07:50:27;;;;;;;;;;;;;;;22.24;73.11;100923.00;5026094;28;19949;-77
2022/09/14 07:52:54;;;;;;;;;;;;;;;22.26;89.50;100912.69;5025715;28;19933;-78
2022/09/14 07:55:21;;;;;;;;;;;;;;;22.82;86.80;100920.44;5025732;28;19926;-80
2022/09/14 07:57:48;;;;;;;;;;;;;;;22.64;79.61;100916.50;5027852;28;19925;-80
2022/09/14 08:00:16;;;;;;;;;;;;;;;22.37;70.39;100916.97;5027374;28;19925;-77
2022/09/14 08:02:43;;;;;;;;;;;;;;;22.98;76.10;100910.31;5024902;28;19998;-77
2022/09/14 08:05:10;;;;;;;;;;;;;;;22.40;71.23;100921.00;5026942;28;19929;-77
2022/09/14 08:07:36;;;;;;;;;;;;;;;23.24;74.20;100910.91;5031330;28;19937;-77
2022/09/14 08:10:03;;;;;;;;;;;;;;;23.15;69.09;100909.91;5027680;28;19925;-79
2022/09/14 08:12:30;;;;;;;;;;;;;;;23.26;70.19;100911.41;5031931;28;19929;-77
2022/09/14 08:14:56;;;;;;;;;;;;;;;24.35;65.24;100911.75;5030729;28;20455;-80
2022/09/14 08:17:24;;;;;;;;;;;;;;;22.92;63.47;100914.13;5031119;28;19933;-80
2022/09/14 08:19:51;;;;;;;;;;;;;;;23.27;64.96;100906.81;5028397;28;20335;-76
2022/09/14 08:22:18;;;;;;;;;;;;;;;23.20;71.87;100901.72;5028046;28;19925;-79
2022/09/14 08:24:45;;;;;;;;;;;;;;;23.22;69.88;100904.94;5030156;28;19992;-81
2022/09/14 08:27:11;;;;;;;;;;;;;;;24.03;64.09;100907.06;5029339;28;19944;-81
2022/09/14 08:29:38;;;;;;;;;;;;;;;23.93;66.08;100894.41;5019491;28;19930;-76
2022/09/14 08:32:05;;;;;;;;;;;;;;;23.19;61.82;100891.97;5034732;28;19936;-76
2022/09/14 08:34:33;;;;;;;;;;;;;;;23.28;67.27;100895.69;5034208;28;20258;-76
2022/09/14 08:37:00;;;;;;;;;;;;;;;22.97;65.67;100895.19;5024245;28;20401;-79
2022/09/14 08:39:26;;;;;;;;;;;;;;;23.29;71.29;100899.19;5030056;28;19994;-81
2022/09/14 08:41:54;;;;;;;;;;;;;;;23.02;66.23;100894.31;5024118;28;19926;-77
2022/09/14 08:44:25;;;;;;;;;;;;;;;24.40;62.80;100877.22;5024161;28;19979;-79
2022/09/14 08:46:53;;;;;;;;;;;;;;;24.12;66.28;100884.41;5029107;28;19925;-77
2022/09/14 08:49:22;;;;;;;;;;;;;;;24.07;72.33;100875.53;5027139;28;19933;-80
2022/09/14 08:51:50;;;;;;;;;;;;;;;24.00;69.15;100878.63;5019614;28;19929;-77
2022/09/14 08:54:17;;;;;;;;;;;;;;;23.88;67.42;100873.63;5026542;28;19932;-78
2022/09/14 08:56:47;;;;;;;;;;;;;;;24.88;58.90;100870.78;5023636;28;19948;-78
2022/09/14 08:59:20;;;;;;;;;;;;;;;24.14;56.55;100870.53;5021666;28;20362;-78
2022/09/14 09:01:52;;;;;;;;;;;;;;;24.59;63.02;100860.13;5022730;28;20339;-79
2022/09/14 09:04:23;;;;;;;;;;;;;;;24.79;59.61;100869.84;5026147;28;19933;-76
2022/09/14 09:06:56;;;;;;;;;;;;;;;24.37;59.30;100869.66;5028911;28;19929;-79
2022/09/14 09:09:26;;;;;;;;;;;;;;;24.27;57.96;100869.00;5030422;28;19933;-78
2022/09/14 09:11:54;;;;;;;;;;;;;;;25.04;59.73;100877.53;5025054;28;19925;-80
2022/09/14 09:14:23;;;;;;;;;;;;;;;24.95;64.43;100867.66;5029902;28;19933;-81
2022/09/14 09:16:52;;;;;;;;;;;;;;;25.12;56.35;100868.72;5024906;28;19952;-79
2022/09/14 09:19:21;;;;;;;;;;;;;;;25.87;54.41;100876.81;5032133;28;20328;-79
2022/09/14 09:21:48;;;;;;;;;;;;;;;24.60;52.44;100870.69;5026924;28;19929;-80
2022/09/14 09:24:22;;;;;;;;;;;;;;;25.29;60.61;100878.22;5027786;28;19999;-82
2022/09/14 09:26:49;;;;;;;;;;;;;;;27.14;50.61;100876.56;5025266;28;20328;-77
2022/09/14 09:29:15;;;;;;;;;;;;;;;25.83;57.66;100881.25;5025013;28;19933;-77
2022/09/14 09:31:44;;;;;;;;;;;;;;;26.24;51.60;100881.97;5028217;28;19937;-80
2022/09/14 09:34:12;;;;;;;;;;;;;;;25.73;50.63;100879.53;5025270;28;19940;-77
2022/09/14 09:36:40;;;;;;;;;;;;;;;26.17;56.55;100873.44;5025197;28;19990;-80
2022/09/14 09:39:07;;;;;;;;;;;;;;;25.81;52.08;100873.38;5026040;28;19925;-80
2022/09/14 09:41:41;;;;;;;;;;;;;;;25.95;51.56;100876.09;5028848;28;19929;-77
2022/09/14 09:44:09;;;;;;;;;;;;;;;26.44;48.75;100869.00;5029265;28;19976;-78
2022/09/14 09:46:37;;;;;;;;;;;;;;;25.92;50.25;100869.34;5028006;28;20020;-80
2022/09/14 09:49:04;;;;;;;;;;;;;;;25.67;50.87;100867.94;5028890;28;19932;-78
2022/09/14 09:51:32;;;;;;;;;;;;;;;26.46;52.18;100856.69;5028171;28;20008;-79
2022/09/14 09:54:03;;;;;;;;;;;;;;;26.40;50.20;100859.84;5028891;28;19925;-77
2022/09/14 09:56:31;;;;;;;;;;;;;;;26.45;48.27;100852.34;5029660;28;19933;-77
2022/09/14 09:58:59;;;;;;;;;;;;;;;27.13;47.48;100860.47;5028584;28;19925;-81
2022/09/14 10:01:27;;;;;;;;;;;;;;;27.60;46.76;100855.38;5024881;28;20007;-77
2022/09/14 10:04:01;;;;;;;;;;;;;;;27.37;48.91;100844.56;5023900;28;19929;-77
2022/09/14 10:06:28;;;;;;;;;;;;;;;26.67;44.68;100850.78;5028023;28;19990;-77
2022/09/14 10:08:57;;;;;;;;;;;;;;;27.74;44.94;100850.56;5024224;28;19925;-77
2022/09/14 10:11:31;;;;;;;;;;;;;;;27.13;47.51;100839.47;5026969;28;19983;-77
2022/09/14 10:13:57;;;;;;;;;;;;;;;27.71;44.54;100847.69;5029160;28;19999;-81
2022/09/14 10:16:28;;;;;;;;;;;;;;;27.44;48.20;100843.28;5028356;28;19929;-76
2022/09/14 10:18:56;;;;;;;;;;;;;;;28.59;43.49;100839.22;5024641;28;20346;-79
2022/09/14 10:21:24;;;;;;;;;;;;;;;26.05;52.32;100837.75;5024455;28;19925;-77
2022/09/14 10:24:03;;;;;;;;;;;;;;;26.83;47.33;100843.00;5029825;28;19933;-79
2022/09/14 10:26:32;;;;;;;;;;;;;;;25.43;44.66;100846.41;5030261;28;20381;-78
2022/09/14 10:29:24;;;;;;;;;;;;;;;26.67;44.02;100837.16;5023608;28;21419;-78
2022/09/14 10:31:53;;;;;;;;;;;;;;;26.90;42.50;100829.72;5025634;28;19955;-82
2022/09/14 10:34:20;;;;;;;;;;;;;;;28.65;40.48;100815.28;5026827;28;20014;-81
2022/09/14 10:36:53;;;;;;;;;;;;;;;27.91;41.61;100830.75;5022247;28;19931;-79
2022/09/14 10:39:22;;;;;;;;;;;;;;;29.14;37.82;100818.50;5024189;28;19933;-80
2022/09/14 10:41:52;;;;;;;;;;;;;;;28.86;38.95;100815.38;5022896;28;19925;-79
2022/09/14 10:44:35;;;;;;;;;;;;;;;28.86;40.13;100815.38;5022129;28;19925;-81
2022/09/14 10:47:15;;;;;;;;;;;;;;;27.97;39.97;100824.00;5027240;28;19925;-77
2022/09/14 10:49:47;;;;;;;;;;;;;;;28.23;40.41;100824.00;5013611;28;19930;-78
2022/09/14 10:52:17;;;;;;;;;;;;;;;29.08;42.06;100828.00;5016312;28;19930;-77
2022/09/14 10:54:59;;;;;;;;;;;;;;;28.08;41.72;100830.75;5020793;28;20440;-79
2022/09/14 10:57:29;;;;;;;;;;;;;;;27.41;44.27;100825.63;5011693;28;20337;-76
2022/09/14 10:59:56;;;;;;;;;;;;;;;28.05;42.57;100811.50;5022728;28;19940;-78
2022/09/14 11:02:43;;;;;;;;;;;;;;;29.62;39.76;100809.09;5026358;28;19925;-80
2022/09/14 11:05:16;;;;;;;;;;;;;;;28.69;37.63;100788.91;5017395;28;19936;-83
2022/09/14 11:07:54;;;;;;;;;;;;;;;28.52;40.03;100784.28;5028835;28;19929;-80
2022/09/14 11:10:23;;;;;;;;;;;;;;;27.63;40.24;100795.53;5021657;28;19926;-80
2022/09/14 11:12:54;;;;;;;;;;;;;;;27.63;39.82;100779.16;5029137;28;19929;-78
2022/09/14 11:15:29;;;;;;;;;;;;;;;27.73;38.06;100786.22;5023195;28;19932;-79
2022/09/14 11:18:13;;;;;;;;;;;;;;;27.99;37.81;100790.91;5023142;28;19936;-80
2022/09/14 11:20:46;;;;;;;;;;;;;;;28.88;37.44;100775.66;5025097;28;19979;-79
2022/09/14 11:23:22;;;;;;;;;;;;;;;28.61;40.20;100771.41;5014481;28;19925;-76
2022/09/14 11:25:52;;;;;;;;;;;;;;;28.31;38.04;100773.22;5013580;28;20384;-81
2022/09/14 11:28:20;;;;;;;;;;;;;;;27.35;38.21;100775.09;5025349;28;19991;-75
2022/09/14 11:30:50;;;;;;;;;;;;;;;29.93;34.99;100761.38;5025307;28;19987;-78
2022/09/14 11:33:22;;;;;;;;;;;;;;;28.49;39.02;100766.63;5017085;28;19929;-77
2022/09/14 11:35:52;;;;;;;;;;;;;;;28.98;38.48;100760.81;5023661;28;19975;-77
2022/09/14 11:38:20;;;;;;;;;;;;;;;29.74;37.59;100759.91;5025024;28;20389;-77
2022/09/14 11:40:51;;;;;;;;;;;;;;;28.35;43.17;100755.06;5025195;28;19925;-80
2022/09/14 11:43:23;;;;;;;;;;;;;;;30.55;34.17;100739.31;5023488;28;20361;-79
2022/09/14 11:45:51;;;;;;;;;;;;;;;28.95;37.90;100753.28;5024966;28;19925;-79
2022/09/14 11:48:22;;;;;;;;;;;;;;;29.40;38.82;100748.06;5027449;28;20020;-80
2022/09/14 11:50:54;;;;;;;;;;;;;;;29.06;39.69;100738.13;5018453;28;20266;-78
2022/09/14 11:53:24;;;;;;;;;;;;;;;29.09;37.21;100737.47;5026139;28;19971;-76
2022/09/14 11:55:54;;;;;;;;;;;;;;;29.84;37.27;100721.19;5025431;28;20282;-79
2022/09/14 11:58:22;;;;;;;;;;;;;;;30.25;36.41;100718.72;5024051;28;20362;-77
2022/09/14 12:01:05;;;;;;;;;;;;;;;29.04;37.87;100717.72;5027030;28;19933;-76
2022/09/14 12:03:52;;;;;;;;;;;;;;;29.97;36.78;100715.75;5029261;28;20063;-79
2022/09/14 12:06:37;;;;;;;;;;;;;;;30.24;35.53;100708.91;5020982;28;19925;-79
2022/09/14 12:09:23;;;;;;;;;;;;;;;30.13;35.18;100694.81;5028643;28;19933;-76
2022/09/14 12:11:57;;;;;;;;;;;;;;;30.92;36.43;100703.72;5025943;28;20436;-77
2022/09/14 12:14:39;;;;;;;;;;;;;;;30.01;35.66;100700.25;5030670;28;19925;-79
2022/09/14 12:17:13;;;;;;;;;;;;;;;30.60;36.30;100699.16;5028686;28;20289;-77
2022/09/14 12:19:40;;;;;;;;;;;;;;;30.91;33.49;100696.66;5027432;28;19932;-76
2022/09/14 12:22:27;;;;;;;;;;;;;;;30.50;34.35;100700.38;5027696;28;19925;-76
2022/09/14 12:25:02;;;;;;;;;;;;;;;30.56;34.09;100693.53;5030403;28;19947;-76
2022/09/14 12:27:34;;;;;;;;;;;;;;;29.82;35.89;100700.75;5017197;28;19991;-77
2022/09/14 12:30:01;;;;;;;;;;;;;;;28.23;40.34;100703.88;5029895;28;19929;-77
2022/09/14 12:32:40;;;;;;;;;;;;;;;30.78;36.49;100703.28;5027088;28;19983;-78
2022/09/14 12:35:25;;;;;;;;;;;;;;;30.01;35.39;100692.81;5026941;28;19925;-80
2022/09/14 12:37:54;;;;;;;;;;;;;;;28.72;38.89;100709.81;5029009;28;19952;-78
2022/09/14 12:40:36;;;;;;;;;;;;;;;28.14;36.17;100703.09;5030060;28;20333;-77
2022/09/14 12:43:21;;;;;;;;;;;;;;;29.32;37.33;100702.44;5024166;28;20028;-79
2022/09/14 12:45:55;;;;;;;;;;;;;;;29.90;35.62;100687.00;5023963;28;19933;-80
2022/09/14 12:48:45;;;;;;;;;;;;;;;29.28;35.45;100696.00;5019949;28;20434;-77